Palava, Texas
Current Conditions -  °F | °C
As of 6:15 PM on Wednesday 26 Nov 2014 (Local Time) from KSWW Reporting Station
Clear Clear  
Wind Chill: 51°   Ceiling: Unl
Heat Index: 51°   Visibility: 10mi
Dew Point: 33°   Wind: 6mph
Humidity: 50%   Direction: 30°NNE
Pressure: 30.33"   Gusts: NA
Location:  32.5104°N, 100.305°W
Report Text: KSWW 270015Z AUTO 03005KT 10SM CLR 11/01 A3033 RMK AO2 T01070005
Loading
Personal Weather Stations






























Interactive Weather Map New forecast layout! Learn more

10-Day Weather Forecast

Advertisements
Track Severe Weather on mobile